Time;durP1;ratioP1;P1;durP2;ratioP2;P2;SDS_P1;SDS_P2;PMS_P1;PMS_P2;Temp;Humidity;BMP_temperature;BMP_pressure;BME280_temperature;BME280_humidity;BME280_pressure;Samples;Min_cycle;Max_cycle;Signal;HPM_P1;HPM_P2
2022/12/19 00:01:14;;;;;;;1999.90;999.90;;;9.60;99.90;;;;;;5050772;28;20029;-79
2022/12/19 00:03:47;;;;;;;1999.90;999.90;;;9.60;99.90;;;;;;5050903;28;20151;-75
2022/12/19 00:06:13;;;;;;;1999.90;999.90;;;9.60;99.90;;;;;;5051859;28;20037;-78
2022/12/19 00:08:43;;;;;;;1999.90;999.90;;;9.70;99.90;;;;;;5051885;28;20496;-78
2022/12/19 00:11:11;;;;;;;1999.90;999.90;;;9.70;99.90;;;;;;5051845;28;20485;-78
2022/12/19 00:13:37;;;;;;;1999.90;999.90;;;9.70;99.90;;;;;;5051940;28;20022;-78
2022/12/19 00:16:05;;;;;;;1999.90;999.90;;;9.70;99.90;;;;;;5053530;28;20435;-78
2022/12/19 00:18:31;;;;;;;1999.90;999.90;;;9.70;99.90;;;;;;5056061;28;20025;-78
2022/12/19 00:21:03;;;;;;;1999.90;999.90;;;9.80;99.90;;;;;;5055668;28;20388;-77
2022/12/19 00:23:30;;;;;;;1999.90;999.90;;;9.80;99.90;;;;;;5056236;28;20052;-77
2022/12/19 00:26:10;;;;;;;1999.90;999.90;;;9.80;99.90;;;;;;5055503;28;20035;-75
2022/12/19 00:28:35;;;;;;;1999.90;999.90;;;9.80;99.90;;;;;;5055724;28;20480;-75
2022/12/19 00:31:02;;;;;;;1999.90;999.90;;;9.70;99.90;;;;;;5055789;28;20092;-78
2022/12/19 00:33:28;;;;;;;1999.90;999.90;;;9.70;99.90;;;;;;5055012;28;20104;-78
2022/12/19 00:36:03;;;;;;;1999.90;999.90;;;9.70;99.90;;;;;;5054542;28;20116;-78
2022/12/19 00:38:29;;;;;;;1999.90;999.90;;;9.70;99.90;;;;;;5055614;28;20044;-77
2022/12/19 00:40:54;;;;;;;1999.90;999.90;;;9.70;99.90;;;;;;5055221;28;20458;-77
2022/12/19 00:43:20;;;;;;;1999.90;999.90;;;9.70;99.90;;;;;;5055682;28;20029;-78
2022/12/19 00:45:46;;;;;;;1999.90;999.90;;;9.70;99.90;;;;;;5055612;28;20028;-79
2022/12/19 00:48:14;;;;;;;1999.90;999.90;;;9.70;99.90;;;;;;5054219;28;20048;-80
2022/12/19 00:50:40;;;;;;;1999.90;999.90;;;9.60;99.90;;;;;;5055426;28;20124;-80
2022/12/19 00:53:06;;;;;;;1999.90;999.90;;;9.60;99.90;;;;;;5055618;28;20488;-77
2022/12/19 00:55:31;;;;;;;1999.90;999.90;;;9.60;99.90;;;;;;5055647;28;20017;-78
2022/12/19 00:57:57;;;;;;;1999.90;999.90;;;9.60;99.90;;;;;;5053866;28;20025;-76
2022/12/19 01:00:22;;;;;;;1999.90;999.90;;;9.70;99.90;;;;;;5055265;28;20111;-82
2022/12/19 01:02:48;;;;;;;1999.90;999.90;;;9.70;99.90;;;;;;5054476;28;20029;-76
2022/12/19 01:05:14;;;;;;;1999.90;999.90;;;9.60;99.90;;;;;;5054970;28;20052;-75
2022/12/19 01:07:39;;;;;;;1999.90;999.90;;;9.70;99.90;;;;;;5055262;28;20103;-78
2022/12/19 01:10:06;;;;;;;1999.90;999.90;;;9.60;99.90;;;;;;5054921;28;20091;-80
2022/12/19 01:12:46;;;;;;;1999.90;999.90;;;9.70;99.90;;;;;;5054438;28;20102;-80
2022/12/19 01:15:19;;;;;;;1999.90;999.90;;;9.60;99.90;;;;;;5055189;28;20024;-79
2022/12/19 01:17:48;;;;;;;1999.90;999.90;;;9.70;99.90;;;;;;5054460;28;20025;-79
2022/12/19 01:20:17;;;;;;;1999.90;999.90;;;9.70;99.90;;;;;;5053640;28;20616;-81
2022/12/19 01:22:43;;;;;;;1999.90;999.90;;;9.70;99.90;;;;;;5054969;28;20434;-80
2022/12/19 01:25:10;;;;;;;1999.90;999.90;;;9.70;99.90;;;;;;5054450;28;20016;-81
2022/12/19 01:27:36;;;;;;;1999.90;999.90;;;9.70;99.90;;;;;;5054305;28;20025;-80
2022/12/19 01:30:03;;;;;;;1999.90;999.90;;;9.70;99.90;;;;;;5054723;28;20025;-75
2022/12/19 01:32:28;;;;;;;1999.90;999.90;;;9.70;99.90;;;;;;5054608;28;20499;-76
2022/12/19 01:34:54;;;;;;;1999.90;999.90;;;9.70;99.90;;;;;;5054376;28;20017;-81
2022/12/19 01:37:20;;;;;;;1999.90;999.90;;;9.70;99.90;;;;;;5054832;28;20124;-81
2022/12/19 01:39:45;;;;;;;1999.90;999.90;;;9.70;99.90;;;;;;5054860;28;20025;-83
2022/12/19 01:42:20;;;;;;;1999.90;999.90;;;9.70;99.90;;;;;;5052869;28;20033;-81
2022/12/19 01:45:07;;;;;;;1999.90;999.90;;;9.70;99.90;;;;;;5054232;28;20017;-79
2022/12/19 01:48:06;;;;;;;1999.90;999.90;;;9.80;99.90;;;;;;5054819;28;20064;-81
2022/12/19 01:50:59;;;;;;;1999.90;999.90;;;9.80;99.90;;;;;;5053752;28;20538;-76
2022/12/19 01:53:32;;;;;;;1999.90;999.90;;;9.90;99.90;;;;;;5039659;28;20113;-82
2022/12/19 01:55:57;;;;;;;1999.90;999.90;;;9.90;99.90;;;;;;5054630;28;20106;-83
2022/12/19 01:58:24;;;;;;;1999.90;999.90;;;10.00;99.90;;;;;;5054120;28;20171;-75
2022/12/19 02:00:49;;;;;;;1999.90;999.90;;;10.00;99.90;;;;;;5052924;28;20139;-75
2022/12/19 02:03:24;;;;;;;1999.90;999.90;;;10.10;99.90;;;;;;5053488;28;20116;-75
2022/12/19 02:05:51;;;;;;;1999.90;999.90;;;10.00;99.90;;;;;;5053777;28;20476;-81
2022/12/19 02:08:17;;;;;;;1999.90;999.90;;;10.00;99.90;;;;;;5054499;28;20447;-82
2022/12/19 02:10:43;;;;;;;1999.90;999.90;;;10.00;99.90;;;;;;5053766;28;20025;-80
2022/12/19 02:13:09;;;;;;;1999.90;999.90;;;10.00;99.90;;;;;;5053655;28;20392;-79
2022/12/19 02:15:56;;;;;;;1999.90;999.90;;;10.00;99.90;;;;;;5053999;28;20025;-79
2022/12/19 02:19:03;;;;;;;1999.90;999.90;;;10.00;99.90;;;;;;5053043;28;20029;-77
2022/12/19 02:21:53;;;;;;;1999.90;999.90;;;10.10;99.90;;;;;;5031881;28;20044;-77
2022/12/19 02:24:51;;;;;;;1999.90;999.90;;;10.10;99.90;;;;;;5052642;28;20037;-81
2022/12/19 02:27:22;;;;;;;1999.90;999.90;;;10.00;99.90;;;;;;5052282;28;20381;-81
2022/12/19 02:29:58;;;;;;;1999.90;999.90;;;10.10;99.90;;;;;;5053833;28;20028;-78
2022/12/19 02:32:51;;;;;;;1999.90;999.90;;;10.10;99.90;;;;;;5053972;28;20029;-83
2022/12/19 02:35:41;;;;;;;1999.90;999.90;;;10.10;99.90;;;;;;5047069;28;20029;-81
2022/12/19 02:38:16;;;;;;;1999.90;999.90;;;10.10;99.90;;;;;;5032689;28;20029;-73
2022/12/19 02:40:53;;;;;;;1999.90;999.90;;;10.20;99.90;;;;;;5033305;28;20029;-81
2022/12/19 02:43:21;;;;;;;1999.90;999.90;;;10.20;99.90;;;;;;5033641;28;20040;-80
2022/12/19 02:45:47;;;;;;;1999.90;999.90;;;10.20;99.90;;;;;;5046415;28;20020;-81
2022/12/19 02:48:13;;;;;;;1999.90;999.90;;;10.20;99.90;;;;;;5053500;28;20039;-79
2022/12/19 02:50:45;;;;;;;1999.90;999.90;;;10.30;99.90;;;;;;5053860;28;20021;-83
2022/12/19 02:53:13;;;;;;;1999.90;999.90;;;10.30;99.90;;;;;;5053322;28;20043;-78
2022/12/19 02:55:54;;;;;;;1999.90;999.90;;;10.30;99.90;;;;;;5052899;28;20439;-78
2022/12/19 02:58:35;;;;;;;1999.90;999.90;;;10.20;99.90;;;;;;5053164;28;20462;-78
2022/12/19 03:01:39;;;;;;;1999.90;999.90;;;10.20;99.90;;;;;;5051753;28;20059;-75
2022/12/19 03:04:28;;;;;;;1999.90;999.90;;;10.20;99.90;;;;;;5052211;28;20057;-75
2022/12/19 03:06:58;;;;;;;1999.90;999.90;;;10.20;99.90;;;;;;5052702;28;20554;-78
2022/12/19 03:09:39;;;;;;;1999.90;999.90;;;10.20;99.90;;;;;;5052904;28;20411;-77
2022/12/19 03:12:15;;;;;;;1999.90;999.90;;;10.10;99.90;;;;;;5052571;28;20098;-78
2022/12/19 03:14:42;;;;;;;1999.90;999.90;;;10.10;99.90;;;;;;5052628;28;20032;-79
2022/12/19 03:17:08;;;;;;;1999.90;999.90;;;10.10;99.90;;;;;;5052875;28;20126;-79
2022/12/19 03:19:37;;;;;;;1999.90;999.90;;;10.00;99.90;;;;;;5052934;28;20107;-78
2022/12/19 03:22:03;;;;;;;1999.90;999.90;;;10.00;99.90;;;;;;5052916;28;20400;-79
2022/12/19 03:24:28;;;;;;;1999.90;999.90;;;10.00;99.90;;;;;;5052662;28;20035;-80
2022/12/19 03:27:07;;;;;;;1999.90;999.90;;;10.00;99.90;;;;;;5052528;28;20113;-80
2022/12/19 03:29:53;;;;;;;1999.90;999.90;;;10.00;99.90;;;;;;5052768;28;20032;-76
2022/12/19 03:32:21;;;;;;;1999.90;999.90;;;10.10;99.90;;;;;;5052400;28;20017;-81
2022/12/19 03:34:52;;;;;;;1999.90;999.90;;;10.10;99.90;;;;;;5052388;28;20523;-77
2022/12/19 03:37:23;;;;;;;1999.90;999.90;;;10.10;99.90;;;;;;5052324;28;20063;-81
2022/12/19 03:39:53;;;;;;;1999.90;999.90;;;10.00;99.90;;;;;;5052654;28;20052;-77
2022/12/19 03:45:07;;;;;;;1999.90;999.90;;;10.00;99.90;;;;;;5052436;28;20561;-79
2022/12/19 03:47:50;;;;;;;1999.90;999.90;;;10.00;99.90;;;;;;5051474;28;20135;-80
2022/12/19 03:50:16;;;;;;;1999.90;999.90;;;10.00;99.90;;;;;;5052658;28;20112;-82
2022/12/19 03:53:15;;;;;;;1999.90;999.90;;;10.00;99.90;;;;;;5050813;28;20087;-75
2022/12/19 03:55:48;;;;;;;1999.90;999.90;;;10.00;99.90;;;;;;5050841;28;20032;-74
2022/12/19 03:58:19;;;;;;;1999.90;999.90;;;9.90;99.90;;;;;;5052421;28;20108;-82
2022/12/19 04:00:47;;;;;;;1999.90;999.90;;;9.90;99.90;;;;;;5052419;28;20028;-80
2022/12/19 04:03:16;;;;;;;1999.90;999.90;;;10.00;99.90;;;;;;5052216;28;20041;-75
2022/12/19 04:05:44;;;;;;;1999.90;999.90;;;10.00;99.90;;;;;;5051651;28;20029;-81
2022/12/19 04:08:10;;;;;;;1999.90;999.90;;;9.90;99.90;;;;;;5052367;28;20053;-81
2022/12/19 04:10:48;;;;;;;1999.90;999.90;;;9.90;99.90;;;;;;5051908;28;20480;-80
2022/12/19 04:13:19;;;;;;;1999.90;999.90;;;9.90;99.90;;;;;;5048147;28;20056;-80
2022/12/19 04:15:57;;;;;;;1999.90;999.90;;;9.90;99.90;;;;;;5079896;28;20029;-78
2022/12/19 04:18:23;;;;;;;1999.90;999.90;;;9.90;99.90;;;;;;5052455;28;20025;-81
2022/12/19 04:21:00;;;;;;;1999.90;999.90;;;9.80;99.90;;;;;;5052081;28;20036;-79
2022/12/19 04:23:32;;;;;;;1999.90;999.90;;;9.80;99.90;;;;;;5050856;28;20057;-75
2022/12/19 04:26:02;;;;;;;1999.90;999.90;;;9.80;99.90;;;;;;5051637;28;20400;-77
2022/12/19 04:28:37;;;;;;;1999.90;999.90;;;9.80;99.90;;;;;;5051936;28;20519;-74
2022/12/19 04:31:04;;;;;;;1999.90;999.90;;;9.80;99.90;;;;;;5052212;28;20169;-79
2022/12/19 04:33:29;;;;;;;1999.90;999.90;;;9.90;99.90;;;;;;5053058;28;20028;-79
2022/12/19 04:35:55;;;;;;;1999.90;999.90;;;9.90;99.90;;;;;;5051736;28;20025;-81
2022/12/19 04:38:21;;;;;;;1999.90;999.90;;;9.90;99.90;;;;;;5051785;28;20040;-75
2022/12/19 04:40:46;;;;;;;1999.90;999.90;;;9.90;99.90;;;;;;5051083;28;20036;-83
2022/12/19 04:43:12;;;;;;;1999.90;999.90;;;9.80;99.90;;;;;;5053235;28;20044;-81
2022/12/19 04:45:40;;;;;;;1999.90;999.90;;;9.90;99.90;;;;;;5053204;28;20404;-79
2022/12/19 04:48:06;;;;;;;1999.90;999.90;;;9.90;99.90;;;;;;5052547;28;20075;-82
2022/12/19 04:50:33;;;;;;;1999.90;999.90;;;9.90;99.90;;;;;;5050666;28;20048;-82
2022/12/19 04:52:58;;;;;;;1999.90;999.90;;;10.00;99.90;;;;;;5053182;28;20036;-84
2022/12/19 04:55:24;;;;;;;1999.90;999.90;;;9.90;99.90;;;;;;5053354;28;20480;-82
2022/12/19 04:57:50;;;;;;;1999.90;999.90;;;9.90;99.90;;;;;;5052529;28;20021;-83
2022/12/19 05:00:15;;;;;;;1999.90;999.90;;;9.90;99.90;;;;;;5052364;28;20111;-83
2022/12/19 05:02:42;;;;;;;1999.90;999.90;;;9.90;99.90;;;;;;5055280;28;20096;-79
2022/12/19 05:05:08;;;;;;;1999.90;999.90;;;10.00;99.90;;;;;;5054678;28;20053;-80
2022/12/19 05:07:33;;;;;;;1999.90;999.90;;;9.90;99.90;;;;;;5056875;28;20021;-82
2022/12/19 05:09:59;;;;;;;1999.90;999.90;;;10.00;99.90;;;;;;5056933;28;20039;-74
2022/12/19 05:12:25;;;;;;;1999.90;999.90;;;10.00;99.90;;;;;;5054155;28;20496;-74
2022/12/19 05:14:50;;;;;;;1999.90;999.90;;;10.00;99.90;;;;;;5046440;28;20025;-75
2022/12/19 05:17:16;;;;;;;1999.90;999.90;;;10.00;99.90;;;;;;5055351;28;20079;-81
2022/12/19 05:19:41;;;;;;;1999.90;999.90;;;9.90;99.90;;;;;;5056367;28;20033;-80
2022/12/19 05:22:07;;;;;;;1999.90;999.90;;;9.90;99.90;;;;;;5058034;28;20036;-80
2022/12/19 05:24:32;;;;;;;1999.90;999.90;;;9.90;99.90;;;;;;5056018;28;20029;-80
2022/12/19 05:26:58;;;;;;;1999.90;999.90;;;9.80;99.90;;;;;;5055839;28;20373;-81
2022/12/19 05:29:24;;;;;;;1999.90;999.90;;;9.80;99.90;;;;;;5054286;28;20036;-80
2022/12/19 05:31:49;;;;;;;1999.90;999.90;;;9.80;99.90;;;;;;5054438;28;20025;-82
2022/12/19 05:34:15;;;;;;;1999.90;999.90;;;9.80;99.90;;;;;;5056330;28;20036;-80
2022/12/19 05:36:40;;;;;;;1999.90;999.90;;;9.80;99.90;;;;;;5056686;28;20024;-82
2022/12/19 05:39:06;;;;;;;1999.90;999.90;;;9.70;99.90;;;;;;5057301;28;20052;-82
2022/12/19 05:41:32;;;;;;;1999.90;999.90;;;9.80;99.90;;;;;;5055730;28;20096;-80
2022/12/19 05:43:58;;;;;;;1999.90;999.90;;;9.80;99.90;;;;;;5054946;28;20033;-81
2022/12/19 05:46:24;;;;;;;1999.90;999.90;;;9.80;99.90;;;;;;5056421;28;20031;-81
2022/12/19 05:48:50;;;;;;;1999.90;999.90;;;9.80;99.90;;;;;;5055183;28;20029;-79
2022/12/19 05:51:16;;;;;;;1999.90;999.90;;;9.70;99.90;;;;;;5054979;28;20084;-82
2022/12/19 05:53:42;;;;;;;1999.90;999.90;;;9.70;99.90;;;;;;5055548;28;20052;-81
2022/12/19 05:56:13;;;;;;;1999.90;999.90;;;9.80;99.90;;;;;;5054281;28;20033;-81
2022/12/19 05:58:39;;;;;;;1999.90;999.90;;;9.70;99.90;;;;;;5054773;28;20499;-80
2022/12/19 06:01:08;;;;;;;1999.90;999.90;;;9.80;99.90;;;;;;5054052;28;20039;-78
2022/12/19 06:03:34;;;;;;;1999.90;999.90;;;9.70;99.90;;;;;;5053527;28;20044;-78
2022/12/19 06:06:04;;;;;;;1999.90;999.90;;;9.70;99.90;;;;;;5053410;28;20044;-81
2022/12/19 06:08:30;;;;;;;1999.90;999.90;;;9.70;99.90;;;;;;5054074;28;20116;-80
2022/12/19 06:10:59;;;;;;;1999.90;999.90;;;9.70;99.90;;;;;;5054336;28;20021;-80
2022/12/19 06:13:25;;;;;;;1999.90;999.90;;;9.70;99.90;;;;;;5053466;28;20047;-75
2022/12/19 06:16:00;;;;;;;1999.90;999.90;;;9.60;99.90;;;;;;5053818;28;20503;-81
2022/12/19 06:18:26;;;;;;;1999.90;999.90;;;9.60;99.90;;;;;;5053594;28;20064;-79
2022/12/19 06:21:06;;;;;;;1999.90;999.90;;;9.70;99.90;;;;;;5053180;28;20490;-79
2022/12/19 06:23:34;;;;;;;1999.90;999.90;;;9.70;99.90;;;;;;5053782;28;20385;-76
2022/12/19 06:26:01;;;;;;;1999.90;999.90;;;9.70;99.90;;;;;;5053332;28;20021;-79
2022/12/19 06:28:28;;;;;;;1999.90;999.90;;;9.70;99.90;;;;;;5053715;28;20025;-75
2022/12/19 06:31:02;;;;;;;1999.90;999.90;;;9.70;99.90;;;;;;5053464;28;20500;-81
2022/12/19 06:33:29;;;;;;;1999.90;999.90;;;9.60;99.90;;;;;;5053615;28;20025;-75
2022/12/19 06:35:58;;;;;;;1999.90;999.90;;;9.70;99.90;;;;;;5046182;28;20155;-75
2022/12/19 06:38:24;;;;;;;1999.90;999.90;;;9.60;99.90;;;;;;5033622;28;20408;-75
2022/12/19 06:43:34;;;;;;;1999.90;999.90;;;9.80;99.90;;;;;;5048746;28;20079;-80
2022/12/19 06:46:00;;;;;;;1999.90;999.90;;;9.80;99.90;;;;;;5052641;28;20052;-75
2022/12/19 06:48:29;;;;;;;1999.90;999.90;;;9.80;99.90;;;;;;5052354;28;20111;-75
2022/12/19 06:50:54;;;;;;;1999.90;999.90;;;9.90;99.90;;;;;;5066534;28;20036;-75
2022/12/19 06:53:20;;;;;;;1999.90;999.90;;;10.00;99.90;;;;;;5034079;28;20026;-76
2022/12/19 06:55:47;;;;;;;1999.90;999.90;;;10.00;99.90;;;;;;5052233;28;20514;-80
2022/12/19 06:58:12;;;;;;;1999.90;999.90;;;10.20;99.90;;;;;;5060799;28;20074;-79
2022/12/19 07:00:38;;;;;;;1999.90;999.90;;;10.30;99.90;;;;;;5055916;28;20029;-79
2022/12/19 07:03:07;;;;;;;1999.90;999.90;;;10.30;99.90;;;;;;5054346;28;20051;-75
2022/12/19 07:05:33;;;;;;;1999.90;999.90;;;10.30;99.90;;;;;;5052086;28;20037;-76
2022/12/19 07:07:59;;;;;;;1999.90;999.90;;;10.40;99.90;;;;;;5050688;28;20036;-81
2022/12/19 07:10:24;;;;;;;1999.90;999.90;;;10.40;99.90;;;;;;5051791;28;20409;-78
2022/12/19 07:12:50;;;;;;;1999.90;999.90;;;10.30;99.90;;;;;;5051300;28;20025;-75
2022/12/19 07:15:17;;;;;;;1999.90;999.90;;;10.40;99.90;;;;;;5052426;28;20099;-79
2022/12/19 07:17:43;;;;;;;1999.90;999.90;;;10.60;99.90;;;;;;5057255;28;20020;-75
2022/12/19 07:20:09;;;;;;;1999.90;999.90;;;10.60;99.90;;;;;;5060003;28;20417;-75
2022/12/19 07:22:35;;;;;;;1999.90;999.90;;;10.60;99.90;;;;;;5053785;28;20037;-80
2022/12/19 07:25:03;;;;;;;1999.90;999.90;;;10.60;99.90;;;;;;5054170;28;20501;-75
2022/12/19 07:27:29;;;;;;;1999.90;999.90;;;10.60;99.90;;;;;;5046242;28;20042;-78
2022/12/19 07:29:54;;;;;;;1999.90;999.90;;;10.60;99.90;;;;;;5050854;28;20471;-75
2022/12/19 07:32:21;;;;;;;1999.90;999.90;;;10.50;99.90;;;;;;5049693;28;20025;-75
2022/12/19 07:34:46;;;;;;;1999.90;999.90;;;10.50;99.90;;;;;;5049764;28;20040;-78
2022/12/19 07:37:12;;;;;;;1999.90;999.90;;;10.50;99.90;;;;;;5048951;28;20029;-75
2022/12/19 07:39:38;;;;;;;1999.90;999.90;;;10.50;99.90;;;;;;5049655;28;20037;-75
2022/12/19 07:42:03;;;;;;;1999.90;999.90;;;10.50;99.90;;;;;;5049845;28;20466;-75
2022/12/19 07:44:29;;;;;;;1999.90;999.90;;;10.50;99.90;;;;;;5050024;28;20082;-75
2022/12/19 07:46:55;;;;;;;1999.90;999.90;;;10.50;99.90;;;;;;5049019;28;20029;-78
2022/12/19 07:49:20;;;;;;;1999.90;999.90;;;10.40;99.90;;;;;;5048589;28;20047;-80
2022/12/19 07:51:46;;;;;;;1999.90;999.90;;;10.40;99.90;;;;;;5046499;28;20035;-75
2022/12/19 07:54:12;;;;;;;1999.90;999.90;;;10.40;99.90;;;;;;5050776;28;20040;-77
2022/12/19 07:56:38;;;;;;;1999.90;999.90;;;10.40;99.90;;;;;;5048501;28;20029;-75
2022/12/19 07:59:03;;;;;;;1999.90;999.90;;;10.50;99.90;;;;;;5047647;28;20399;-76
2022/12/19 08:01:29;;;;;;;1999.90;999.90;;;10.50;99.90;;;;;;5049353;28;20033;-79
2022/12/19 08:03:55;;;;;;;1999.90;999.90;;;10.50;99.90;;;;;;5062123;28;20126;-77
2022/12/19 08:06:20;;;;;;;1999.90;999.90;;;10.50;99.90;;;;;;5056394;28;20040;-75
2022/12/19 08:08:47;;;;;;;1999.90;999.90;;;10.50;99.90;;;;;;5047980;28;20025;-75
2022/12/19 08:11:16;;;;;;;1999.90;999.90;;;10.50;99.90;;;;;;5039102;28;20097;-75
2022/12/19 08:13:43;;;;;;;1999.90;999.90;;;10.60;99.90;;;;;;5043294;28;20400;-75
2022/12/19 08:16:09;;;;;;;1999.90;999.90;;;10.60;99.90;;;;;;5039180;28;20409;-75
2022/12/19 08:18:35;;;;;;;1999.90;999.90;;;10.60;99.90;;;;;;5052415;28;20056;-79
2022/12/19 08:21:01;;;;;;;1999.90;999.90;;;10.70;99.90;;;;;;5047099;28;20056;-75
2022/12/19 08:23:27;;;;;;;1999.90;999.90;;;10.70;99.90;;;;;;5048566;28;20123;-75
2022/12/19 08:26:04;;;;;;;1999.90;999.90;;;10.70;99.90;;;;;;5047553;28;20025;-77
2022/12/19 08:28:31;;;;;;;1999.90;999.90;;;10.80;99.90;;;;;;5047666;28;20032;-78
2022/12/19 08:30:58;;;;;;;1999.90;999.90;;;10.80;99.90;;;;;;5048258;28;20728;-75
2022/12/19 08:33:24;;;;;;;1999.90;999.90;;;10.90;99.90;;;;;;5053785;28;20032;-80
2022/12/19 08:35:49;;;;;;;1999.90;999.90;;;10.90;99.90;;;;;;5041201;28;20032;-75
2022/12/19 08:38:15;;;;;;;1999.90;999.90;;;10.90;99.90;;;;;;5047549;28;20091;-75
2022/12/19 08:40:41;;;;;;;1999.90;999.90;;;10.90;99.90;;;;;;5047046;28;20052;-79
2022/12/19 08:43:06;;;;;;;1999.90;999.90;;;11.00;99.90;;;;;;5049602;28;20040;-76
2022/12/19 08:45:32;;;;;;;1999.90;999.90;;;11.00;99.90;;;;;;5046438;28;20447;-75
2022/12/19 08:47:57;;;;;;;1999.90;999.90;;;11.00;99.90;;;;;;5050511;28;20039;-77
2022/12/19 08:50:24;;;;;;;1999.90;999.90;;;11.10;99.90;;;;;;5049591;28;20099;-75
2022/12/19 08:52:50;;;;;;;1999.90;999.90;;;11.00;99.90;;;;;;5049767;28;20092;-78
2022/12/19 08:55:15;;;;;;;1999.90;999.90;;;11.00;99.90;;;;;;5047873;28;20041;-79
2022/12/19 08:57:41;;;;;;;1999.90;999.90;;;11.00;99.90;;;;;;5051130;28;20481;-75
2022/12/19 09:00:07;;;;;;;1999.90;999.90;;;11.10;99.90;;;;;;5053395;28;20039;-75
2022/12/19 09:02:33;;;;;;;1999.90;999.90;;;11.10;99.90;;;;;;5047901;28;20025;-74
2022/12/19 09:04:58;;;;;;;1999.90;999.90;;;11.10;99.90;;;;;;5049408;28;20577;-77
2022/12/19 09:07:24;;;;;;;1999.90;999.90;;;11.10;99.90;;;;;;5044444;28;20489;-74
2022/12/19 09:09:50;;;;;;;1999.90;999.90;;;11.20;99.90;;;;;;5041761;28;20546;-77
2022/12/19 09:12:16;;;;;;;1999.90;999.90;;;11.20;99.90;;;;;;5052417;28;20082;-74
2022/12/19 09:14:43;;;;;;;1999.90;999.90;;;11.20;99.90;;;;;;5051684;28;20021;-74
2022/12/19 09:17:08;;;;;;;1999.90;999.90;;;11.20;99.90;;;;;;5049356;28;20025;-75
2022/12/19 09:19:34;;;;;;;1999.90;999.90;;;11.30;99.90;;;;;;5048983;28;20554;-77
2022/12/19 09:21:59;;;;;;;1999.90;999.90;;;11.30;99.90;;;;;;5050786;28;20068;-75
2022/12/19 09:24:25;;;;;;;1999.90;999.90;;;11.20;99.90;;;;;;5049697;28;20031;-74
2022/12/19 09:26:51;;;;;;;1999.90;999.90;;;11.20;99.90;;;;;;5047818;28;20405;-75
2022/12/19 09:29:17;;;;;;;1999.90;999.90;;;11.30;99.90;;;;;;5046734;28;20204;-75
2022/12/19 09:31:42;;;;;;;1999.90;999.90;;;11.30;99.90;;;;;;5053907;28;20064;-76
2022/12/19 09:34:08;;;;;;;1999.90;999.90;;;11.30;99.90;;;;;;5049536;28;20017;-77
2022/12/19 09:36:36;;;;;;;1999.90;999.90;;;11.30;99.90;;;;;;5050396;28;20033;-74
2022/12/19 09:39:02;;;;;;;1999.90;999.90;;;11.30;99.90;;;;;;5054502;28;20032;-75
2022/12/19 09:41:52;;;;;;;1999.90;999.90;;;11.40;99.90;;;;;;5049430;28;20033;-75
2022/12/19 09:44:43;;;;;;;1999.90;999.90;;;11.40;99.90;;;;;;5052014;28;20037;-77
2022/12/19 09:47:13;;;;;;;1999.90;999.90;;;11.40;99.90;;;;;;5050566;28;20033;-75
2022/12/19 09:49:45;;;;;;;1999.90;999.90;;;11.40;99.90;;;;;;5048107;28;20037;-77
2022/12/19 09:52:32;;;;;;;1999.90;999.90;;;11.40;99.90;;;;;;5048377;28;20036;-75
2022/12/19 09:55:22;;;;;;;1999.90;999.90;;;11.40;99.90;;;;;;5052203;28;20498;-76
2022/12/19 09:58:17;;;;;;;1999.90;999.90;;;11.40;99.90;;;;;;5052012;28;20119;-77
2022/12/19 10:00:48;;;;;;;1999.90;999.90;;;11.40;99.90;;;;;;5051294;28;20021;-78
2022/12/19 10:03:16;;;;;;;1999.90;999.90;;;11.40;99.90;;;;;;5048811;28;20041;-74
2022/12/19 10:05:44;;;;;;;1999.90;999.90;;;11.50;99.90;;;;;;5051713;28;20104;-77
2022/12/19 10:08:31;;;;;;;1999.90;999.90;;;11.50;99.90;;;;;;5055083;28;20024;-75
2022/12/19 10:11:15;;;;;;;1999.90;999.90;;;11.50;99.90;;;;;;5052656;28;20412;-76
2022/12/19 10:14:17;;;;;;;1999.90;999.90;;;11.50;99.90;;;;;;5049763;28;20420;-75
2022/12/19 10:16:58;;;;;;;1999.90;999.90;;;11.60;99.90;;;;;;5049779;28;20060;-75
2022/12/19 10:19:51;;;;;;;1999.90;999.90;;;11.60;99.90;;;;;;5049844;28;20061;-76
2022/12/19 10:22:42;;;;;;;1999.90;999.90;;;11.60;99.90;;;;;;5049717;28;20735;-75
2022/12/19 10:25:25;;;;;;;1999.90;999.90;;;11.60;99.90;;;;;;5044415;28;20029;-78
2022/12/19 10:28:00;;;;;;;1999.90;999.90;;;11.60;99.90;;;;;;5047482;28;20033;-78
2022/12/19 10:30:31;;;;;;;1999.90;999.90;;;11.60;99.90;;;;;;5050301;28;20499;-75
2022/12/19 10:33:04;;;;;;;1999.90;999.90;;;11.60;99.90;;;;;;5058650;28;20061;-78
2022/12/19 10:35:39;;;;;;;1999.90;999.90;;;11.60;99.90;;;;;;5046097;28;20048;-75
2022/12/19 10:38:23;;;;;;;1999.90;999.90;;;11.50;99.90;;;;;;5050170;28;20403;-77
2022/12/19 10:41:19;;;;;;;1999.90;999.90;;;11.50;99.90;;;;;;5049067;28;20080;-75
2022/12/19 10:44:08;;;;;;;1999.90;999.90;;;11.50;99.90;;;;;;5049077;28;20476;-75
2022/12/19 10:46:44;;;;;;;1999.90;999.90;;;11.50;99.90;;;;;;5051324;28;20021;-75
2022/12/19 10:49:13;;;;;;;1999.90;999.90;;;11.50;99.90;;;;;;5047696;28;20033;-75
2022/12/19 10:51:41;;;;;;;1999.90;999.90;;;11.50;99.90;;;;;;5042565;28;20524;-75
2022/12/19 10:54:07;;;;;;;1999.90;999.90;;;11.50;99.90;;;;;;5048403;28;20056;-75
2022/12/19 10:56:34;;;;;;;1999.90;999.90;;;11.60;99.90;;;;;;5048993;28;20029;-75
2022/12/19 10:59:01;;;;;;;1999.90;999.90;;;11.60;99.90;;;;;;5046914;28;20036;-75
2022/12/19 11:01:38;;;;;;;1999.90;999.90;;;11.60;99.90;;;;;;5047628;28;20395;-75
2022/12/19 11:04:27;;;;;;;1999.90;999.90;;;11.70;99.90;;;;;;5045554;28;20557;-76
2022/12/19 11:07:02;;;;;;;1999.90;999.90;;;11.70;99.90;;;;;;5049050;28;20074;-75
2022/12/19 11:09:29;;;;;;;1999.90;999.90;;;11.70;99.90;;;;;;5047284;28;20159;-75
2022/12/19 11:12:07;;;;;;;1999.90;999.90;;;11.70;99.90;;;;;;5047609;28;20560;-75
2022/12/19 11:14:35;;;;;;;1999.90;999.90;;;11.80;99.90;;;;;;5046653;28;20078;-75
2022/12/19 11:17:01;;;;;;;1999.90;999.90;;;11.80;99.90;;;;;;5049508;28;20104;-80
2022/12/19 11:19:31;;;;;;;1999.90;999.90;;;11.80;99.90;;;;;;5045375;28;20039;-77
2022/12/19 11:22:01;;;;;;;1999.90;999.90;;;11.80;99.90;;;;;;5044218;28;20551;-77
2022/12/19 11:24:34;;;;;;;1999.90;999.90;;;11.90;99.90;;;;;;5048428;28;20068;-76
2022/12/19 11:26:59;;;;;;;1999.90;999.90;;;11.90;99.90;;;;;;5053284;28;20070;-80
2022/12/19 11:29:45;;;;;;;1999.90;999.90;;;12.00;99.90;;;;;;5050325;28;20038;-77
2022/12/19 11:32:42;;;;;;;1999.90;999.90;;;12.00;99.90;;;;;;5049179;28;20048;-81
2022/12/19 11:35:16;;;;;;;1999.90;999.90;;;12.20;99.90;;;;;;5042272;28;20048;-76
2022/12/19 11:37:56;;;;;;;1999.90;999.90;;;12.30;99.90;;;;;;5050828;28;20028;-75
2022/12/19 11:40:32;;;;;;;1999.90;999.90;;;12.30;99.90;;;;;;5053305;28;20175;-75
2022/12/19 11:43:30;;;;;;;1999.90;999.90;;;12.40;99.90;;;;;;5045793;28;20139;-77
2022/12/19 11:46:17;;;;;;;1999.90;999.90;;;12.50;99.90;;;;;;5050996;28;20047;-78
2022/12/19 11:48:48;;;;;;;1999.90;999.90;;;12.60;99.90;;;;;;5048324;28;20065;-84
2022/12/19 11:51:26;;;;;;;1999.90;999.90;;;12.60;99.90;;;;;;5047035;28;20079;-77
2022/12/19 11:54:01;;;;;;;1999.90;999.90;;;12.70;99.90;;;;;;5049062;28;20021;-81
2022/12/19 11:56:28;;;;;;;1999.90;999.90;;;12.80;99.90;;;;;;5045704;28;20037;-79
2022/12/19 11:59:00;;;;;;;1999.90;999.90;;;12.90;99.90;;;;;;5056242;28;20035;-80
2022/12/19 12:01:44;;;;;;;1999.90;999.90;;;13.00;99.90;;;;;;5062264;28;20547;-77
2022/12/19 12:04:32;;;;;;;1999.90;999.90;;;13.00;99.90;;;;;;5051795;28;20044;-76
2022/12/19 12:06:58;;;;;;;1999.90;999.90;;;13.00;99.90;;;;;;5049474;28;20462;-80
2022/12/19 12:09:39;;;;;;;1999.90;999.90;;;13.10;99.90;;;;;;5046721;28;20044;-77
2022/12/19 12:12:20;;;;;;;1999.90;999.90;;;13.10;99.90;;;;;;5055854;28;20023;-80
2022/12/19 12:15:24;;;;;;;1999.90;999.90;;;13.00;99.90;;;;;;5058625;28;20039;-77
2022/12/19 12:18:05;;;;;;;1999.90;999.90;;;13.00;99.90;;;;;;5069442;28;20024;-80
2022/12/19 12:21:09;;;;;;;1999.90;999.90;;;13.00;99.90;;;;;;5045370;28;20761;-79
2022/12/19 12:23:59;;;;;;;1999.90;999.90;;;12.90;99.90;;;;;;5044395;28;20041;-79
2022/12/19 12:26:35;;;;;;;1999.90;999.90;;;12.90;99.90;;;;;;5052988;28;20045;-77
2022/12/19 12:29:14;;;;;;;1999.90;999.90;;;12.90;99.90;;;;;;5054275;28;20048;-77